Time;durP1;ratioP1;P1;durP2;ratioP2;P2;SDS_P1;SDS_P2;PMS_P1;PMS_P2;Temp;Humidity;BMP_temperature;BMP_pressure;BME280_temperature;BME280_humidity;BME280_pressure;Samples;Min_cycle;Max_cycle;Signal;HPM_P1;HPM_P2
2023/03/10 00:01:34;;;;;;;1.67;0.60;;;11.40;99.90;;;11.37;100.00;98329.06;5095474;29;20050;-68
2023/03/10 00:04:06;;;;;;;2.75;0.80;;;11.40;99.90;;;11.38;100.00;98316.88;5097062;29;20051;-69
2023/03/10 00:06:38;;;;;;;2.10;0.60;;;11.40;99.90;;;11.40;100.00;98315.09;5102096;29;20040;-69
2023/03/10 00:09:11;;;;;;;0.90;0.55;;;11.40;99.90;;;11.41;100.00;98316.88;5101961;29;20071;-68
2023/03/10 00:11:43;;;;;;;1.95;0.65;;;11.40;99.90;;;11.41;100.00;98311.66;5094521;29;20230;-68
2023/03/10 00:14:15;;;;;;;1.42;0.63;;;11.40;99.90;;;11.43;100.00;98317.72;5099848;29;20044;-71
2023/03/10 00:16:48;;;;;;;2.15;0.70;;;11.40;99.90;;;11.43;100.00;98312.50;5102368;29;20044;-69
2023/03/10 00:19:20;;;;;;;1.45;0.50;;;11.40;99.90;;;11.45;100.00;98310.72;5102145;29;20044;-68
2023/03/10 00:21:53;;;;;;;3.67;1.00;;;11.40;99.90;;;11.44;100.00;98314.22;5095088;29;20043;-68
2023/03/10 00:24:25;;;;;;;0.93;0.50;;;11.40;99.90;;;11.44;100.00;98308.13;5098787;29;20036;-71
2023/03/10 00:26:57;;;;;;;2.15;0.60;;;11.40;99.90;;;11.43;100.00;98301.19;5098575;29;20048;-68
2023/03/10 00:29:33;;;;;;;2.70;0.60;;;11.40;99.90;;;11.44;100.00;98295.09;5090376;29;20440;-68
2023/03/10 00:32:10;;;;;;;2.65;0.40;;;11.40;99.90;;;11.39;100.00;98295.13;5101140;29;20047;-70
2023/03/10 00:34:42;;;;;;;0.43;0.43;;;11.40;99.90;;;11.34;100.00;98297.75;5101460;29;20046;-69
2023/03/10 00:37:14;;;;;;;0.98;0.50;;;11.30;99.90;;;11.39;100.00;98301.22;5093133;29;20505;-67
2023/03/10 00:39:51;;;;;;;0.68;0.43;;;11.40;99.90;;;11.35;100.00;98299.53;5097003;29;20035;-68
2023/03/10 00:42:24;;;;;;;1.65;0.60;;;11.40;99.90;;;11.41;100.00;98298.59;5101175;29;20051;-69
2023/03/10 00:44:58;;;;;;;1.15;0.50;;;11.40;99.90;;;11.40;100.00;98309.91;5101086;29;20335;-69
2023/03/10 00:47:32;;;;;;;1.13;0.47;;;11.40;99.90;;;11.37;100.00;98296.91;5094148;29;20039;-68
2023/03/10 00:50:06;;;;;;;1.08;0.40;;;11.40;99.90;;;11.39;100.00;98293.38;5101886;29;20107;-68
2023/03/10 00:52:38;;;;;;;1.77;0.52;;;11.40;99.90;;;11.40;100.00;98302.06;5103422;29;20139;-69
2023/03/10 00:55:12;;;;;;;1.05;0.47;;;11.30;99.90;;;11.45;100.00;98297.69;5120366;29;20054;-70
2023/03/10 00:57:44;;;;;;;1.10;0.43;;;11.40;99.90;;;11.41;100.00;98293.41;5105039;29;20040;-70
2023/03/10 01:00:17;;;;;;;0.43;0.40;;;11.40;99.90;;;11.56;100.00;98295.84;5105202;29;20446;-68
2023/03/10 01:02:51;;;;;;;0.30;0.30;;;11.50;99.90;;;11.52;100.00;98295.88;5118411;29;20080;-68
2023/03/10 01:05:24;;;;;;;0.65;0.40;;;11.50;99.90;;;11.49;100.00;98285.50;5104122;29;20047;-70
2023/03/10 01:07:56;;;;;;;0.40;0.30;;;11.40;99.90;;;11.48;100.00;98289.84;5098161;29;20106;-70
2023/03/10 01:10:30;;;;;;;0.43;0.35;;;11.40;99.90;;;11.47;100.00;98292.44;5104480;29;20048;-69
2023/03/10 01:13:02;;;;;;;0.80;0.60;;;11.40;99.90;;;11.53;100.00;98297.63;5104172;29;20419;-68
2023/03/10 01:15:34;;;;;;;0.30;0.30;;;11.50;99.90;;;11.55;100.00;98291.53;5095410;29;20047;-70
2023/03/10 01:18:08;;;;;;;1.33;0.60;;;11.50;99.90;;;11.57;100.00;98288.91;5105019;29;20051;-70
2023/03/10 01:20:41;;;;;;;0.52;0.52;;;11.50;99.90;;;11.60;100.00;98284.50;5103439;29;20412;-69
2023/03/10 01:23:15;;;;;;;0.73;0.22;;;11.50;99.90;;;11.57;100.00;98287.16;5104906;29;20083;-69
2023/03/10 01:25:48;;;;;;;0.47;0.47;;;11.50;99.90;;;11.61;100.00;98281.03;5096209;29;20058;-69
2023/03/10 01:28:21;;;;;;;0.20;0.13;;;11.50;99.90;;;11.62;100.00;98287.13;5106867;29;20416;-69
2023/03/10 01:30:53;;;;;;;0.30;0.30;;;11.60;99.90;;;11.61;100.00;98291.47;5104919;29;20055;-69
2023/03/10 01:33:27;;;;;;;0.25;0.25;;;11.60;99.90;;;11.62;100.00;98287.97;5097155;29;20062;-69
2023/03/10 01:35:59;;;;;;;0.57;0.32;;;11.60;99.90;;;11.61;100.00;98275.81;5104399;29;20040;-70
2023/03/10 01:38:31;;;;;;;0.38;0.30;;;11.60;99.90;;;11.65;100.00;98277.50;5104022;29;20063;-69
2023/03/10 01:41:06;;;;;;;0.40;0.20;;;11.60;99.90;;;11.62;100.00;98277.53;5103473;29;20051;-71
2023/03/10 01:43:39;;;;;;;0.28;0.28;;;11.60;99.90;;;11.61;100.00;98272.34;5101665;29;20036;-69
2023/03/10 01:46:48;;;;;;;0.30;0.30;;;11.60;99.90;;;11.55;100.00;98275.88;5104028;29;20040;-70
2023/03/10 01:49:39;;;;;;;0.20;0.20;;;11.50;99.90;;;11.51;100.00;98281.97;5110869;29;20047;-69
2023/03/10 01:52:16;;;;;;;0.55;0.30;;;11.50;99.90;;;11.50;100.00;98271.56;5104779;29;20036;-70
2023/03/10 01:54:54;;;;;;;0.40;0.40;;;11.50;99.90;;;11.50;100.00;98277.66;5090821;29;20136;-69
2023/03/10 01:57:30;;;;;;;0.20;0.20;;;11.50;99.90;;;11.45;100.00;98274.22;5099387;29;20047;-71
2023/03/10 02:00:10;;;;;;;0.20;0.20;;;11.50;99.90;;;11.43;100.00;98275.97;5096674;29;20079;-71
2023/03/10 02:02:55;;;;;;;0.20;0.20;;;11.40;99.90;;;11.43;100.00;98273.38;5102506;29;20375;-71
2023/03/10 02:05:32;;;;;;;0.25;0.25;;;11.40;99.90;;;11.42;100.00;98271.66;5099936;29;20135;-72
2023/03/10 02:08:06;;;;;;;0.55;0.38;;;11.40;99.90;;;11.40;100.00;98276.84;5118665;29;20056;-69
2023/03/10 02:10:39;;;;;;;0.52;0.30;;;11.40;99.90;;;11.40;100.00;98276.84;5115985;29;20070;-69
2023/03/10 02:13:12;;;;;;;0.80;0.30;;;11.40;99.90;;;11.38;100.00;98275.16;5119567;29;20050;-71
2023/03/10 02:15:45;;;;;;;0.47;0.32;;;11.40;99.90;;;11.40;100.00;98283.81;5114253;29;20071;-70
2023/03/10 02:18:20;;;;;;;0.25;0.22;;;11.40;99.90;;;11.39;100.00;98285.56;5115556;29;20052;-70
2023/03/10 02:21:04;;;;;;;0.40;0.20;;;11.40;99.90;;;11.38;100.00;98282.97;5107833;29;20490;-68
2023/03/10 02:23:48;;;;;;;0.20;0.20;;;11.30;99.90;;;11.35;100.00;98280.41;5130456;28;20044;-70
2023/03/10 02:26:36;;;;;;;0.28;0.28;;;11.30;99.90;;;11.36;100.00;98274.31;5114893;29;20051;-68
2023/03/10 02:29:18;;;;;;;0.30;0.20;;;11.30;99.90;;;11.35;100.00;98280.41;5111204;29;20058;-69
2023/03/10 02:31:52;;;;;;;2.40;0.30;;;11.30;99.90;;;11.37;100.00;98289.06;5116237;29;20049;-71
2023/03/10 02:34:25;;;;;;;0.77;0.20;;;11.30;99.90;;;11.34;100.00;98282.13;5115127;28;20497;-70
2023/03/10 02:36:57;;;;;;;0.50;0.20;;;11.30;99.90;;;11.31;100.00;98291.72;5119404;29;20409;-69
2023/03/10 02:39:30;;;;;;;0.65;0.20;;;11.30;99.90;;;11.27;100.00;98283.03;5115731;29;20071;-70
2023/03/10 02:42:05;;;;;;;0.98;0.30;;;11.30;99.90;;;11.22;100.00;98279.63;5116913;29;20063;-69
2023/03/10 02:44:40;;;;;;;0.22;0.22;;;11.20;99.90;;;11.18;100.00;98274.44;5113731;29;20119;-70
2023/03/10 02:47:12;;;;;;;0.38;0.28;;;11.20;99.90;;;11.13;100.00;98272.72;5124135;28;20043;-69
2023/03/10 02:49:45;;;;;;;0.20;0.20;;;11.10;99.90;;;11.12;100.00;98281.44;5118407;29;20610;-69
2023/03/10 02:52:27;;;;;;;0.80;0.32;;;11.10;99.90;;;11.12;100.00;98278.81;5111897;29;20047;-67
2023/03/10 02:54:59;;;;;;;0.32;0.28;;;11.10;99.90;;;11.12;100.00;98281.44;5116375;29;20070;-68
2023/03/10 02:57:32;;;;;;;0.15;0.15;;;11.10;99.90;;;11.10;100.00;98283.19;5106377;29;20044;-71
2023/03/10 03:00:10;;;;;;;0.25;0.20;;;11.10;99.90;;;11.10;100.00;98275.38;5114403;29;20050;-69
2023/03/10 03:02:42;;;;;;;0.43;0.20;;;11.10;99.90;;;11.09;100.00;98259.75;5136519;28;20138;-69
2023/03/10 03:05:14;;;;;;;0.28;0.28;;;11.10;99.90;;;11.08;100.00;98258.88;5115099;28;20090;-69
2023/03/10 03:07:47;;;;;;;0.20;0.20;;;11.10;99.90;;;11.08;100.00;98264.09;5106644;28;20075;-70
2023/03/10 03:10:19;;;;;;;0.75;0.10;;;11.10;99.90;;;11.08;100.00;98256.28;5106792;28;20103;-71
2023/03/10 03:12:55;;;;;;;0.28;0.20;;;11.10;99.90;;;11.05;100.00;98253.69;5130244;28;20043;-69
2023/03/10 03:15:28;;;;;;;0.32;0.20;;;11.00;99.90;;;11.05;100.00;98247.59;5128761;28;20590;-71
2023/03/10 03:18:02;;;;;;;0.20;0.20;;;11.00;99.90;;;11.04;100.00;98251.94;5118372;28;20059;-71
2023/03/10 03:20:39;;;;;;;0.35;0.20;;;11.00;99.90;;;11.04;100.00;98257.16;5125661;28;20067;-69
2023/03/10 03:23:12;;;;;;;0.20;0.20;;;11.00;99.90;;;11.01;100.00;98246.75;5109895;28;20123;-71
2023/03/10 03:25:44;;;;;;;0.38;0.20;;;11.00;99.90;;;10.99;100.00;98242.44;5113443;29;20044;-71
2023/03/10 03:28:21;;;;;;;0.30;0.30;;;11.00;99.90;;;10.99;100.00;98250.25;5114122;29;20051;-70
2023/03/10 03:30:56;;;;;;;0.50;0.50;;;11.00;99.90;;;10.95;100.00;98252.00;5114314;29;20047;-69
2023/03/10 03:33:29;;;;;;;0.40;0.38;;;10.90;99.90;;;10.94;100.00;98249.41;5118567;28;20048;-69
2023/03/10 03:36:02;;;;;;;0.30;0.30;;;10.90;99.90;;;10.94;100.00;98249.41;5117691;29;20043;-71
2023/03/10 03:38:34;;;;;;;1.85;0.40;;;10.90;99.90;;;10.91;100.00;98239.88;5133795;28;20050;-69
2023/03/10 03:41:09;;;;;;;2.40;0.50;;;10.90;99.90;;;10.96;100.00;98239.88;5107966;29;20126;-69
2023/03/10 03:43:43;;;;;;;2.10;0.40;;;10.90;99.90;;;10.97;100.00;98234.63;5111961;29;20079;-68
2023/03/10 03:46:17;;;;;;;0.80;0.40;;;10.90;99.90;;;10.96;100.00;98235.50;5121944;29;20043;-67
2023/03/10 03:48:52;;;;;;;2.33;0.80;;;10.90;99.90;;;10.96;100.00;98238.13;5105547;29;20134;-67
2023/03/10 03:51:25;;;;;;;3.75;0.60;;;10.90;99.90;;;10.97;100.00;98239.84;5129441;28;20043;-69
2023/03/10 03:53:58;;;;;;;1.58;0.50;;;10.90;99.90;;;10.92;100.00;98230.31;5121328;28;20047;-67
2023/03/10 03:56:30;;;;;;;1.70;0.43;;;10.90;99.90;;;10.95;100.00;98238.97;5113024;29;20050;-69
2023/03/10 03:59:02;;;;;;;1.58;0.52;;;10.90;99.90;;;10.91;100.00;98237.28;5108293;28;20106;-70
2023/03/10 04:01:36;;;;;;;3.17;0.85;;;10.90;99.90;;;10.91;100.00;98234.69;5116464;29;20051;-70
2023/03/10 04:04:11;;;;;;;1.50;0.70;;;10.90;99.90;;;10.90;100.00;98235.56;5109259;29;20063;-69
2023/03/10 04:06:43;;;;;;;2.40;0.70;;;10.90;99.90;;;10.92;100.00;98227.72;5111787;29;20044;-69
2023/03/10 04:09:17;;;;;;;3.97;0.68;;;10.90;99.90;;;10.88;100.00;98221.66;5107821;28;20412;-69
2023/03/10 04:11:49;;;;;;;0.82;0.63;;;10.90;99.90;;;10.86;100.00;98226.03;5101562;29;20043;-70
2023/03/10 04:14:21;;;;;;;2.78;0.52;;;10.80;99.90;;;10.83;100.00;98236.47;5116265;29;20063;-70
2023/03/10 04:16:56;;;;;;;2.22;0.70;;;10.80;99.90;;;10.80;100.00;98236.47;5121209;29;20051;-70
2023/03/10 04:19:28;;;;;;;5.72;0.95;;;10.80;99.90;;;10.77;100.00;98233.91;5112797;29;20043;-69
2023/03/10 04:22:09;;;;;;;3.40;0.55;;;10.80;99.90;;;10.72;100.00;98233.06;5113345;29;20070;-69
2023/03/10 04:24:42;;;;;;;2.58;0.55;;;10.70;99.90;;;10.68;100.00;98236.56;5120109;28;20122;-69
2023/03/10 04:27:14;;;;;;;1.55;0.55;;;10.70;99.90;;;10.64;100.00;98224.44;5117417;29;20063;-70
2023/03/10 04:29:48;;;;;;;1.88;0.50;;;10.70;99.90;;;10.60;100.00;98229.66;5116934;28;20579;-70
2023/03/10 04:32:21;;;;;;;1.85;0.50;;;10.60;99.90;;;10.56;100.00;98225.38;5126506;28;20086;-68
2023/03/10 04:34:54;;;;;;;0.45;0.28;;;10.60;99.90;;;10.53;100.00;98212.34;5124078;29;20052;-69
2023/03/10 04:37:27;;;;;;;1.85;0.40;;;10.60;99.90;;;10.48;100.00;98206.28;5109103;29;20067;-69
2023/03/10 04:40:01;;;;;;;0.93;0.77;;;10.50;99.90;;;10.44;100.00;98201.13;5120171;29;20409;-69
2023/03/10 04:42:33;;;;;;;9.38;4.80;;;10.50;99.90;;;10.37;100.00;98200.31;5129876;28;20047;-70
2023/03/10 04:45:07;;;;;;;4.35;2.13;;;10.40;99.90;;;10.36;100.00;98201.16;5119639;29;20066;-68
2023/03/10 04:47:42;;;;;;;6.30;3.28;;;10.40;99.90;;;10.35;100.00;98195.97;5114903;29;20398;-71
2023/03/10 04:50:16;;;;;;;8.35;3.03;;;10.30;99.90;;;10.33;100.00;98198.56;5125948;28;20043;-69
2023/03/10 04:52:49;;;;;;;;;;;10.30;99.90;;;10.31;100.00;98195.13;5117479;28;20039;-69
2023/03/10 04:55:23;;;;;;;7.00;2.55;;;10.40;99.90;;;10.30;100.00;98193.38;5116471;29;19983;-71
2023/03/10 04:57:55;;;;;;;5.35;3.13;;;10.30;99.90;;;10.29;100.00;98191.66;5122131;29;20043;-69
2023/03/10 05:00:30;;;;;;;4.38;2.30;;;10.30;99.90;;;10.25;100.00;98187.34;5124892;28;20420;-69
2023/03/10 05:03:05;;;;;;;5.97;2.20;;;10.30;99.90;;;10.21;100.00;98183.84;5104772;29;20112;-69
2023/03/10 05:05:38;;;;;;;2.63;1.88;;;10.30;99.90;;;10.21;100.00;98188.19;5119047;29;20119;-70
2023/03/10 05:08:11;;;;;;;4.03;2.08;;;10.20;99.90;;;10.20;100.00;98184.72;5112200;28;20040;-69
2023/03/10 05:10:46;;;;;;;4.70;2.22;;;10.20;99.90;;;10.21;100.00;98181.25;5121358;29;20461;-71
2023/03/10 05:13:18;;;;;;;7.35;2.50;;;10.30;99.90;;;10.20;100.00;98179.53;5104896;29;20047;-66
2023/03/10 05:15:51;;;;;;;4.13;2.30;;;10.20;99.90;;;10.21;100.00;98167.38;5123258;28;20050;-68
2023/03/10 05:18:25;;;;;;;3.95;1.70;;;10.30;99.90;;;10.20;100.00;98165.66;5117203;29;20043;-68
2023/03/10 05:20:58;;;;;;;4.50;2.28;;;10.20;99.90;;;10.19;100.00;98169.13;5104493;29;20095;-69
2023/03/10 05:23:32;;;;;;;6.05;2.15;;;10.30;99.90;;;10.19;100.00;98163.91;5120257;29;20530;-71
2023/03/10 05:26:06;;;;;;;4.60;2.15;;;10.20;99.90;;;10.20;100.00;98163.03;5124010;29;20515;-69
2023/03/10 05:28:39;;;;;;;4.40;1.92;;;10.20;99.90;;;10.21;100.00;98156.97;5115944;29;20043;-70
2023/03/10 05:31:15;;;;;;;7.43;2.00;;;10.20;99.90;;;10.20;100.00;98156.09;5171437;23;20102;-83
2023/03/10 05:33:51;;;;;;;4.90;1.70;;;10.30;99.90;;;10.22;100.00;98154.34;5156756;28;20544;-83
2023/03/10 05:36:23;;;;;;;3.38;1.30;;;10.30;99.90;;;10.25;100.00;98166.53;5160115;28;20090;-84
2023/03/10 05:38:56;;;;;;;2.85;1.30;;;10.30;99.90;;;10.26;100.00;98173.44;5159314;28;20187;-83
2023/03/10 05:41:28;;;;;;;1.80;1.13;;;10.30;99.90;;;10.30;100.00;98172.53;5160191;28;20043;-85
2023/03/10 05:44:03;;;;;;;2.78;1.20;;;10.30;99.90;;;10.32;100.00;98169.06;5146437;28;20047;-83
2023/03/10 05:46:36;;;;;;;3.17;1.30;;;10.40;99.90;;;10.34;100.00;98174.25;5153606;28;20085;-84
2023/03/10 05:49:09;;;;;;;3.45;1.00;;;10.30;99.90;;;10.35;100.00;98180.34;5150027;28;20054;-85
2023/03/10 05:51:42;;;;;;;2.90;0.80;;;10.40;99.90;;;10.34;100.00;98176.88;5148015;28;20049;-84
2023/03/10 05:54:15;;;;;;;1.85;0.80;;;10.40;99.90;;;10.35;100.00;98169.91;5133247;28;20046;-81
2023/03/10 05:56:47;;;;;;;1.77;0.82;;;10.40;99.90;;;10.34;100.00;98174.25;5140151;28;20079;-85
2023/03/10 05:59:20;;;;;;;2.55;0.80;;;10.40;99.90;;;10.33;100.00;98183.81;5142256;28;20047;-84
2023/03/10 06:01:52;;;;;;;3.75;1.00;;;10.40;99.90;;;10.34;100.00;98179.47;5140150;28;20077;-84
2023/03/10 06:04:30;;;;;;;1.65;0.85;;;10.40;99.90;;;10.34;100.00;98182.06;5141268;28;20039;-84
2023/03/10 06:07:04;;;;;;;2.05;1.27;;;10.40;99.90;;;10.32;100.00;98178.63;5140400;28;20476;-84
2023/03/10 06:09:36;;;;;;;2.47;0.88;;;10.40;99.90;;;10.31;100.00;98177.75;5150996;28;20053;-84
2023/03/10 06:12:09;;;;;;;4.13;0.82;;;10.40;99.90;;;10.32;100.00;98181.22;5152433;28;20058;-84
2023/03/10 06:14:41;;;;;;;1.70;0.60;;;10.30;99.90;;;10.29;100.00;98178.63;5137444;28;20051;-84
2023/03/10 06:17:13;;;;;;;3.58;0.90;;;10.30;99.90;;;10.25;100.00;98190.81;5158058;28;20066;-87
2023/03/10 06:19:46;;;;;;;1.15;0.57;;;10.30;99.90;;;10.22;100.00;98180.38;5150728;28;20050;-85
2023/03/10 06:22:18;;;;;;;1.60;0.45;;;10.30;99.90;;;10.20;100.00;98176.91;5157687;28;20133;-85
2023/03/10 06:24:50;;;;;;;2.47;0.55;;;10.30;99.90;;;10.21;100.00;98178.63;5139309;28;20054;-85
2023/03/10 06:27:23;;;;;;;1.95;0.50;;;10.30;99.90;;;10.20;100.00;98176.06;5145675;28;20046;-85
2023/03/10 06:29:55;;;;;;;1.63;0.60;;;10.20;99.90;;;10.19;100.00;98174.34;5148595;28;20046;-84
2023/03/10 06:32:27;;;;;;;1.20;0.47;;;10.20;99.90;;;10.18;100.00;98172.59;5134209;28;20051;-84
2023/03/10 06:35:00;;;;;;;1.00;0.50;;;10.20;99.90;;;10.18;100.00;98170.00;5137940;28;20043;-85
2023/03/10 06:37:33;;;;;;;1.70;0.60;;;10.20;99.90;;;10.20;100.00;98165.66;5135381;28;20051;-83
2023/03/10 06:40:08;;;;;;;1.08;0.50;;;10.20;99.90;;;10.20;100.00;98176.06;5136602;28;20055;-85
2023/03/10 06:42:41;;;;;;;1.63;0.43;;;10.20;99.90;;;10.21;100.00;98172.56;5134073;28;20054;-84
2023/03/10 06:45:16;;;;;;;0.73;0.60;;;10.20;99.90;;;10.21;100.00;98159.56;5147171;28;20391;-84
2023/03/10 06:47:48;;;;;;;0.35;0.35;;;10.20;99.90;;;10.22;100.00;98161.28;5136832;28;20043;-86
2023/03/10 06:50:24;;;;;;;2.17;0.50;;;10.20;99.90;;;10.24;100.00;98163.06;5134139;28;20183;-84
2023/03/10 06:52:56;;;;;;;1.75;0.85;;;10.30;99.90;;;10.24;100.00;98162.19;5136243;28;20043;-84
2023/03/10 06:55:28;;;;;;;2.13;0.80;;;10.20;99.90;;;10.25;100.00;98169.13;5148653;28;20038;-86
2023/03/10 06:58:00;;;;;;;3.58;1.40;;;10.30;99.90;;;10.24;100.00;98167.41;5146678;28;20483;-84
2023/03/10 07:00:33;;;;;;;3.65;0.80;;;10.30;99.90;;;10.27;100.00;98169.97;5137797;28;20110;-82
2023/03/10 07:03:05;;;;;;;2.10;0.73;;;10.30;99.90;;;10.28;100.00;98169.09;5150133;28;20047;-85
2023/03/10 07:05:39;;;;;;;1.85;0.82;;;10.30;99.90;;;10.32;100.00;98160.41;5130407;28;20050;-89
2023/03/10 07:08:11;;;;;;;1.85;1.00;;;10.30;99.90;;;10.33;100.00;98165.59;5130782;28;20066;-88
2023/03/10 07:10:43;;;;;;;5.55;1.25;;;10.30;99.90;;;10.32;100.00;98170.81;5129368;28;20050;-88
2023/03/10 07:13:16;;;;;;;3.22;1.05;;;10.40;99.90;;;10.31;100.00;98163.88;5137225;28;20062;-86
2023/03/10 07:15:48;;;;;;;3.00;0.73;;;10.30;99.90;;;10.32;100.00;98174.28;5150244;28;20061;-87
2023/03/10 07:18:21;;;;;;;1.67;1.02;;;10.40;99.90;;;10.35;100.00;98176.00;5136793;28;20055;-87
2023/03/10 07:20:54;;;;;;;1.50;1.05;;;10.40;99.90;;;10.34;100.00;98169.06;5151181;28;20050;-87
2023/03/10 07:23:27;;;;;;;3.03;1.00;;;10.40;99.90;;;10.35;100.00;98175.13;5140021;28;20051;-88
2023/03/10 07:25:59;;;;;;;4.15;0.98;;;10.40;99.90;;;10.36;100.00;98175.13;5151815;28;20067;-87
2023/03/10 07:28:31;;;;;;;3.58;1.10;;;10.40;99.90;;;10.39;100.00;98179.47;5136402;28;20107;-87
2023/03/10 07:31:04;;;;;;;2.30;0.82;;;10.40;99.90;;;10.42;100.00;98188.09;5132603;28;20493;-87
2023/03/10 07:33:37;;;;;;;1.52;0.80;;;10.40;99.90;;;10.45;100.00;98182.88;5148775;28;20061;-87
2023/03/10 07:36:17;;;;;;;2.13;0.93;;;10.40;99.90;;;10.56;100.00;98188.00;5140373;28;20573;-86
2023/03/10 07:38:49;;;;;;;3.00;1.00;;;10.50;99.90;;;10.73;100.00;98178.34;5148065;28;20328;-87
2023/03/10 07:41:22;;;;;;;3.80;1.10;;;10.60;99.90;;;10.91;100.00;98177.34;5147335;28;20563;-84
2023/03/10 07:43:55;;;;;;;3.63;1.33;;;10.80;99.90;;;11.06;100.00;98177.19;5142235;28;20054;-87
2023/03/10 07:46:27;;;;;;;3.25;1.27;;;10.90;99.90;;;11.27;100.00;98188.31;5146264;28;20145;-87
2023/03/10 07:49:03;;;;;;;3.45;1.20;;;11.10;99.90;;;11.50;100.00;98188.97;5150891;28;20046;-88
2023/03/10 07:51:36;;;;;;;2.95;1.13;;;11.30;99.90;;;11.73;100.00;98193.06;5145801;28;20117;-83
2023/03/10 07:54:09;;;;;;;5.45;1.10;;;11.50;99.90;;;12.05;100.00;98187.50;5135459;28;20047;-86
2023/03/10 07:56:41;;;;;;;1.30;0.82;;;11.70;99.90;;;12.26;100.00;98192.47;5149712;28;20070;-88
2023/03/10 07:59:13;;;;;;;3.50;0.98;;;11.90;99.90;;;12.39;100.00;98198.38;5131199;28;20051;-87
2023/03/10 08:01:45;;;;;;;4.93;1.00;;;12.10;99.90;;;12.47;100.00;98201.75;5131371;28;20050;-87
2023/03/10 08:04:17;;;;;;;5.15;1.00;;;12.20;99.90;;;12.44;100.00;98196.53;5148925;28;20134;-87
2023/03/10 08:06:51;;;;;;;5.15;1.38;;;12.20;99.90;;;12.41;100.00;98204.44;5132964;28;20051;-89
2023/03/10 08:09:23;;;;;;;3.90;0.90;;;12.20;99.90;;;12.38;100.00;98199.25;5144198;28;20054;-88
2023/03/10 08:11:55;;;;;;;4.03;1.15;;;12.20;99.90;;;12.39;100.00;98201.00;5148811;28;20093;-86
2023/03/10 08:14:29;;;;;;;1.58;0.70;;;12.10;99.90;;;12.33;100.00;98203.69;5117709;28;20063;-88
2023/03/10 08:17:01;;;;;;;5.38;1.40;;;12.10;99.90;;;12.33;100.00;98201.06;5145123;28;20440;-88
2023/03/10 08:19:34;;;;;;;3.38;0.80;;;12.10;99.90;;;12.30;100.00;98203.72;5147555;28;20078;-88
2023/03/10 08:22:09;;;;;;;2.83;0.70;;;12.10;99.90;;;12.23;100.00;98216.84;5147095;28;20175;-88
2023/03/10 08:24:41;;;;;;;2.60;0.80;;;12.10;99.90;;;12.13;100.00;98211.78;5147686;28;20125;-87
2023/03/10 08:27:13;;;;;;;4.38;0.98;;;12.00;99.90;;;12.07;100.00;98207.50;5130776;28;20057;-89
2023/03/10 08:29:45;;;;;;;3.20;0.80;;;11.90;99.90;;;12.09;100.00;98218.78;5122523;28;20512;-86
2023/03/10 08:32:18;;;;;;;4.10;0.90;;;11.90;99.90;;;12.13;100.00;98217.00;5145274;28;20063;-86
2023/03/10 08:34:50;;;;;;;1.63;0.70;;;11.90;99.90;;;12.20;100.00;98224.75;5148378;28;20047;-88
2023/03/10 08:37:24;;;;;;;3.65;0.98;;;12.00;99.90;;;12.61;100.00;98220.69;5133418;28;20050;-87
2023/03/10 08:39:57;;;;;;;3.05;0.90;;;12.20;99.90;;;13.49;100.00;98212.34;5148714;28;20047;-89
2023/03/10 08:42:30;;;;;;;3.53;0.90;;;12.80;99.90;;;14.66;100.00;98228.31;5143306;28;20058;-84
2023/03/10 08:45:02;;;;;;;2.72;0.70;;;13.60;99.90;;;15.36;100.00;98219.69;5132543;28;20058;-84
2023/03/10 08:47:34;;;;;;;2.30;0.68;;;14.20;99.90;;;15.59;100.00;98224.34;5148132;28;20050;-83
2023/03/10 08:50:08;;;;;;;2.05;0.65;;;14.60;99.90;;;15.57;100.00;98223.50;5149313;28;20496;-83
2023/03/10 08:52:41;;;;;;;1.95;0.60;;;14.80;99.90;;;15.33;100.00;98225.03;5151511;28;20054;-83
2023/03/10 08:55:14;;;;;;;0.70;0.50;;;14.70;99.90;;;14.99;100.00;98224.97;5125659;28;20050;-85
2023/03/10 08:57:46;;;;;;;1.63;0.55;;;14.50;99.90;;;14.64;100.00;98224.03;5136827;28;20042;-83
2023/03/10 09:00:20;;;;;;;0.75;0.45;;;14.30;99.90;;;14.42;100.00;98222.75;5144073;28;20047;-86
2023/03/10 09:02:52;;;;;;;2.15;0.57;;;14.10;99.90;;;14.40;100.00;98221.00;5139742;28;20114;-83
2023/03/10 09:05:24;;;;;;;2.00;0.57;;;14.00;99.90;;;14.34;100.00;98221.16;5142270;28;20417;-85
2023/03/10 09:07:57;;;;;;;2.50;0.90;;;14.00;99.90;;;14.28;100.00;98225.63;5147845;28;20456;-87
2023/03/10 09:10:30;;;;;;;2.35;0.75;;;13.90;99.90;;;14.24;100.00;98227.47;5130991;28;20125;-86
2023/03/10 09:13:02;;;;;;;2.58;0.80;;;13.90;99.90;;;14.16;100.00;98220.66;5134716;28;20055;-87
2023/03/10 09:15:39;;;;;;;1.73;0.50;;;13.80;99.90;;;14.30;100.00;98224.72;5143939;28;20054;-78
2023/03/10 09:18:14;;;;;;;4.10;1.20;;;13.90;99.90;;;15.02;94.90;98219.66;5140245;28;20047;-83
2023/03/10 09:20:47;;;;;;;0.98;0.40;;;14.40;99.90;;;15.57;92.29;98223.50;5145775;28;20051;-87
2023/03/10 09:23:21;;;;;;;1.88;0.50;;;15.00;99.90;;;15.86;91.59;98230.66;5146395;28;20058;-87
2023/03/10 09:25:53;;;;;;;0.63;0.30;;;15.30;99.90;;;16.10;89.81;98234.38;5149630;28;20047;-86
2023/03/10 09:28:25;;;;;;;1.52;0.38;;;15.60;99.90;;;16.24;87.55;98243.59;5151094;28;20130;-87
2023/03/10 09:30:57;;;;;;;2.47;0.40;;;15.80;99.90;;;16.16;87.38;98252.59;5152050;28;20054;-86
2023/03/10 09:33:29;;;;;;;1.92;0.30;;;15.70;99.90;;;15.98;85.14;98246.97;5147569;28;20077;-83
2023/03/10 09:36:02;;;;;;;1.10;0.70;;;15.60;99.60;;;15.78;87.04;98251.91;5134639;28;20062;-86
2023/03/10 09:38:36;;;;;;;1.13;0.50;;;15.40;99.90;;;15.73;85.49;98251.16;5127688;29;20111;-86
2023/03/10 09:41:35;;;;;;;1.23;0.35;;;15.30;99.60;;;15.68;87.49;98242.50;5155297;28;20054;-85
2023/03/10 09:44:23;;;;;;;5.80;0.70;;;15.30;99.90;;;15.85;89.91;98247.34;5144213;28;20051;-81
2023/03/10 09:47:18;;;;;;;4.50;0.60;;;15.40;99.90;;;16.20;89.53;98227.97;5151828;28;20137;-82
2023/03/10 09:50:03;;;;;;;2.33;0.47;;;15.70;99.90;;;16.49;86.76;98241.09;5153417;28;20560;-82
2023/03/10 09:52:44;;;;;;;1.33;0.50;;;16.00;99.90;;;16.54;84.38;98247.09;5143526;28;20070;-82
2023/03/10 09:55:23;;;;;;;2.42;0.40;;;16.10;99.10;;;16.48;84.59;98241.16;5142586;28;20073;-82
2023/03/10 09:57:57;;;;;;;2.60;0.52;;;16.10;99.10;;;16.40;83.65;98240.53;5150483;28;20494;-82
2023/03/10 10:00:35;;;;;;;3.53;0.63;;;16.10;98.40;;;16.23;85.59;98236.59;5127156;28;20051;-80
2023/03/10 10:03:18;;;;;;;1.92;0.40;;;16.00;99.20;;;16.18;85.78;98237.66;5146435;28;20027;-83
2023/03/10 10:05:54;;;;;;;1.25;0.40;;;16.00;99.10;;;16.14;82.48;98241.25;5139139;28;20035;-85
2023/03/10 10:08:29;;;;;;;2.92;0.55;;;16.00;97.50;;;15.98;83.24;98240.84;5127369;28;20049;-87
2023/03/10 10:11:04;;;;;;;1.30;0.40;;;15.80;97.70;;;15.92;84.09;98236.63;5135001;28;20047;-85
2023/03/10 10:13:37;;;;;;;1.88;0.68;;;15.70;98.10;;;15.88;83.02;98239.34;5134076;28;20141;-82
2023/03/10 10:16:25;;;;;;;1.02;0.35;;;15.60;97.50;;;15.88;85.35;98237.59;5135842;28;20050;-84
2023/03/10 10:19:04;;;;;;;1.60;0.55;;;15.60;98.80;;;16.10;85.35;98229.97;5154141;28;20034;-89
2023/03/10 10:21:43;;;;;;;1.60;0.40;;;15.70;99.00;;;16.25;84.79;98228.69;5150908;28;20047;-88
2023/03/10 10:24:16;;;;;;;1.17;0.40;;;15.80;98.70;;;16.49;83.85;98229.72;5138280;28;20039;-87
2023/03/10 10:26:50;;;;;;;1.38;0.43;;;16.00;98.80;;;16.73;83.30;98223.75;5137152;28;20055;-87
2023/03/10 10:29:24;;;;;;;0.80;0.40;;;16.20;98.20;;;17.00;82.17;98237.81;5137935;28;20051;-92
2023/03/10 10:32:09;;;;;;;;;;;16.50;97.70;;;16.97;80.10;98230.03;5150225;28;20082;-91
2023/03/10 10:34:43;;;;;;;4.22;1.00;;;16.60;96.40;;;16.90;80.21;98236.41;5132150;28;20670;-92
2023/03/10 10:37:29;;;;;;;2.88;0.50;;;16.50;96.00;;;16.89;79.71;98242.59;5140270;28;20046;-92
2023/03/10 10:40:04;;;;;;;1.42;0.30;;;16.50;95.70;;;16.82;79.84;98241.03;5136144;28;20052;-92
2023/03/10 10:42:38;;;;;;;2.13;0.50;;;16.40;95.80;;;16.64;79.05;98242.44;5140797;28;20124;-94